SAS123 EKCH-EKYT
Flight info
| Callsign | SAS123 |
|---|---|
| Flight time | 0h 33m |
| Altitude | 18000 |
| Route | GOLG3A GOLGA T506 LAPMA L621 AAL |
| Aircraft | A320/M-V/N |
Departure
| Time | 2026-04-26 18:57 |
|---|---|
| Airport | Copenhagen Kastrup Airport (EKCH) |
Arrival
| Time | 2026-04-26 19:31 |
|---|---|
| Airport | Aalborg Airport (EKYT) |
| Time | Latitude | Longitude | Altitude | Speed | Heading |
|---|---|---|---|---|---|
| 2026-04-26 18:29 | 55.62813 | 12.64224 | 24 ft | 0 kts | 123° |
| 2026-04-26 18:42 | 55.62824 | 12.64193 | 24 ft | 4 kts | 113° |
| 2026-04-26 18:42 | 55.62832 | 12.64148 | 24 ft | 4 kts | 98° |
| 2026-04-26 18:42 | 55.62833 | 12.64100 | 24 ft | 4 kts | 85° |
| 2026-04-26 18:43 | 55.62830 | 12.64053 | 24 ft | 4 kts | 78° |
| 2026-04-26 18:43 | 55.62825 | 12.64008 | 24 ft | 3 kts | 88° |
| 2026-04-26 18:43 | 55.62825 | 12.63970 | 24 ft | 4 kts | 96° |
| 2026-04-26 18:43 | 55.62830 | 12.63923 | 24 ft | 4 kts | 106° |
| 2026-04-26 18:44 | 55.62838 | 12.63878 | 25 ft | 4 kts | 109° |
| 2026-04-26 18:44 | 55.62843 | 12.63850 | 27 ft | 0 kts | 104° |
| 2026-04-26 18:48 | 55.62843 | 12.63853 | 27 ft | 1 kts | 104° |
| 2026-04-26 18:49 | 55.62838 | 12.63889 | 26 ft | 5 kts | 104° |
| 2026-04-26 18:49 | 55.62813 | 12.63954 | 27 ft | 8 kts | 146° |
| 2026-04-26 18:49 | 55.62752 | 12.63930 | 25 ft | 11 kts | 211° |
| 2026-04-26 18:49 | 55.62677 | 12.63856 | 24 ft | 14 kts | 188° |
| 2026-04-26 18:50 | 55.62608 | 12.63984 | 25 ft | 17 kts | 123° |
| 2026-04-26 18:50 | 55.62536 | 12.64174 | 24 ft | 20 kts | 123° |
| 2026-04-26 18:50 | 55.62448 | 12.64395 | 25 ft | 24 kts | 128° |
| 2026-04-26 18:50 | 55.62347 | 12.64651 | 24 ft | 27 kts | 123° |
| 2026-04-26 18:51 | 55.62233 | 12.64789 | 24 ft | 19 kts | 195° |
| 2026-04-26 18:51 | 55.62113 | 12.64657 | 24 ft | 22 kts | 213° |
| 2026-04-26 18:51 | 55.61968 | 12.64509 | 24 ft | 26 kts | 195° |
| 2026-04-26 18:51 | 55.61783 | 12.64551 | 24 ft | 29 kts | 169° |
| 2026-04-26 18:52 | 55.61620 | 12.64502 | 24 ft | 25 kts | 213° |
| 2026-04-26 18:52 | 55.61467 | 12.64328 | 25 ft | 28 kts | 213° |
| 2026-04-26 18:52 | 55.61298 | 12.64134 | 24 ft | 30 kts | 213° |
| 2026-04-26 18:52 | 55.61162 | 12.63977 | 24 ft | 10 kts | 214° |
| 2026-04-26 18:53 | 55.61098 | 12.63899 | 24 ft | 13 kts | 214° |
| 2026-04-26 18:53 | 55.61011 | 12.63803 | 25 ft | 16 kts | 213° |
| 2026-04-26 18:53 | 55.60906 | 12.63680 | 24 ft | 20 kts | 212° |
| 2026-04-26 18:53 | 55.60802 | 12.63594 | 24 ft | 15 kts | 167° |
| 2026-04-26 18:54 | 55.60772 | 12.63630 | 24 ft | 0 kts | 131° |
| 2026-04-26 18:54 | 55.60771 | 12.63633 | 24 ft | 1 kts | 130° |
| 2026-04-26 18:54 | 55.60758 | 12.63660 | 24 ft | 5 kts | 130° |
| 2026-04-26 18:55 | 55.60742 | 12.63692 | 24 ft | 0 kts | 132° |
| 2026-04-26 18:55 | 55.60735 | 12.63706 | 25 ft | 3 kts | 132° |
| 2026-04-26 18:55 | 55.60713 | 12.63748 | 24 ft | 6 kts | 132° |
| 2026-04-26 18:55 | 55.60698 | 12.63822 | 25 ft | 7 kts | 102° |
| 2026-04-26 18:56 | 55.60712 | 12.63919 | 27 ft | 10 kts | 51° |
| 2026-04-26 18:56 | 55.60730 | 12.63949 | 26 ft | 0 kts | 41° |
| 2026-04-26 18:56 | 55.60774 | 12.64015 | 26 ft | 36 kts | 41° |
| 2026-04-26 18:56 | 55.61165 | 12.64618 | 25 ft | 109 kts | 41° |
| 2026-04-26 18:57 | 55.61877 | 12.65725 | 31 ft | 161 kts | 41° |
| 2026-04-26 18:57 | 55.62158 | 12.66160 | 111 ft | 168 kts | 40° |
| 2026-04-26 18:57 | 55.63730 | 12.68521 | 1088 ft | 187 kts | 38° |
| 2026-04-26 18:57 | 55.64738 | 12.70073 | 1762 ft | 196 kts | 38° |
| 2026-04-26 18:58 | 55.65961 | 12.71172 | 2277 ft | 212 kts | 4° |
| 2026-04-26 18:58 | 55.67483 | 12.70795 | 2760 ft | 235 kts | 343° |
| 2026-04-26 18:58 | 55.69136 | 12.70056 | 3537 ft | 251 kts | 343° |
| 2026-04-26 18:58 | 55.70883 | 12.69560 | 4609 ft | 261 kts | 351° |
| 2026-04-26 18:59 | 55.72795 | 12.69300 | 5091 ft | 293 kts | 354° |
| 2026-04-26 18:59 | 55.74960 | 12.69124 | 5250 ft | 329 kts | 355° |
| 2026-04-26 18:59 | 55.77364 | 12.68965 | 5286 ft | 362 kts | 355° |
| 2026-04-26 18:59 | 55.79877 | 12.68797 | 5929 ft | 342 kts | 355° |
| 2026-04-26 19:00 | 55.82089 | 12.68482 | 6353 ft | 303 kts | 342° |
| 2026-04-26 19:00 | 55.83817 | 12.66727 | 6355 ft | 278 kts | 311° |
| 2026-04-26 19:00 | 55.84636 | 12.63790 | 6352 ft | 261 kts | 279° |
| 2026-04-26 19:00 | 55.84641 | 12.60637 | 6352 ft | 252 kts | 271° |
| 2026-04-26 19:01 | 55.84900 | 12.57602 | 6353 ft | 248 kts | 289° |
| 2026-04-26 19:01 | 55.85495 | 12.54721 | 6353 ft | 248 kts | 292° |
| 2026-04-26 19:01 | 55.86138 | 12.51872 | 6353 ft | 248 kts | 293° |
| 2026-04-26 19:01 | 55.86796 | 12.49026 | 6338 ft | 249 kts | 293° |
| 2026-04-26 19:02 | 55.87456 | 12.46148 | 6341 ft | 252 kts | 292° |
| 2026-04-26 19:02 | 55.88112 | 12.43252 | 6348 ft | 253 kts | 292° |
| 2026-04-26 19:02 | 55.88756 | 12.40380 | 6359 ft | 254 kts | 292° |
| 2026-04-26 19:02 | 55.88978 | 12.39386 | 6512 ft | 259 kts | 292° |
| 2026-04-26 19:03 | 55.90098 | 12.34459 | 8225 ft | 257 kts | 297° |
| 2026-04-26 19:03 | 55.90995 | 12.31708 | 9238 ft | 257 kts | 306° |
| 2026-04-26 19:03 | 55.92031 | 12.29101 | 10244 ft | 258 kts | 307° |
| 2026-04-26 19:03 | 55.93074 | 12.26476 | 11121 ft | 260 kts | 307° |
| 2026-04-26 19:04 | 55.94156 | 12.23754 | 11562 ft | 280 kts | 307° |
| 2026-04-26 19:04 | 55.95322 | 12.20815 | 11934 ft | 298 kts | 307° |
| 2026-04-26 19:04 | 55.96531 | 12.17757 | 12636 ft | 304 kts | 307° |
| 2026-04-26 19:04 | 55.97756 | 12.14654 | 13463 ft | 307 kts | 306° |
| 2026-04-26 19:05 | 56.00229 | 12.08355 | 14978 ft | 313 kts | 306° |
| 2026-04-26 19:05 | 56.01483 | 12.05152 | 15669 ft | 316 kts | 306° |
| 2026-04-26 19:05 | 56.02790 | 12.01960 | 16339 ft | 319 kts | 311° |
| 2026-04-26 19:06 | 56.04397 | 11.99198 | 16991 ft | 323 kts | 321° |
| 2026-04-26 19:06 | 56.06310 | 11.97021 | 17648 ft | 329 kts | 329° |
| 2026-04-26 19:06 | 56.08315 | 11.95006 | 18151 ft | 332 kts | 329° |
| 2026-04-26 19:06 | 56.10332 | 11.92969 | 18264 ft | 334 kts | 328° |
| 2026-04-26 19:07 | 56.12335 | 11.90943 | 18278 ft | 336 kts | 328° |
| 2026-04-26 19:07 | 56.14375 | 11.88874 | 18278 ft | 336 kts | 328° |
| 2026-04-26 19:07 | 56.16409 | 11.86808 | 18278 ft | 336 kts | 328° |
| 2026-04-26 19:07 | 56.18447 | 11.84733 | 18279 ft | 336 kts | 328° |
| 2026-04-26 19:08 | 56.20482 | 11.82657 | 18282 ft | 336 kts | 328° |
| 2026-04-26 19:08 | 56.22516 | 11.80583 | 18278 ft | 336 kts | 328° |
| 2026-04-26 19:08 | 56.23864 | 11.79205 | 18278 ft | 336 kts | 328° |
| 2026-04-26 19:08 | 56.25898 | 11.77124 | 18277 ft | 336 kts | 328° |
| 2026-04-26 19:09 | 56.27929 | 11.75037 | 18281 ft | 336 kts | 328° |
| 2026-04-26 19:09 | 56.29962 | 11.72944 | 18295 ft | 336 kts | 328° |
| 2026-04-26 19:09 | 56.31992 | 11.70855 | 18293 ft | 336 kts | 328° |
| 2026-04-26 19:09 | 56.34019 | 11.68740 | 18298 ft | 336 kts | 327° |
| 2026-04-26 19:10 | 56.36000 | 11.66512 | 18298 ft | 336 kts | 326° |
| 2026-04-26 19:10 | 56.37956 | 11.64201 | 18298 ft | 336 kts | 325° |
| 2026-04-26 19:10 | 56.39872 | 11.61894 | 18059 ft | 326 kts | 325° |
| 2026-04-26 19:10 | 56.41733 | 11.59651 | 17792 ft | 317 kts | 325° |
| 2026-04-26 19:11 | 56.43541 | 11.57480 | 17519 ft | 308 kts | 325° |
| 2026-04-26 19:11 | 56.45312 | 11.55364 | 17248 ft | 302 kts | 325° |
| 2026-04-26 19:11 | 56.47060 | 11.53282 | 16984 ft | 300 kts | 325° |
| 2026-04-26 19:11 | 56.48799 | 11.51215 | 16724 ft | 298 kts | 325° |
| 2026-04-26 19:12 | 56.50529 | 11.49158 | 16465 ft | 297 kts | 325° |
| 2026-04-26 19:12 | 56.52251 | 11.47107 | 16209 ft | 295 kts | 325° |
| 2026-04-26 19:12 | 56.53954 | 11.45075 | 15958 ft | 290 kts | 325° |
| 2026-04-26 19:12 | 56.55617 | 11.43087 | 15706 ft | 284 kts | 325° |
| 2026-04-26 19:13 | 56.57249 | 11.41134 | 15456 ft | 278 kts | 325° |
| 2026-04-26 19:13 | 56.58852 | 11.39215 | 15212 ft | 274 kts | 325° |
| 2026-04-26 19:13 | 56.60430 | 11.37328 | 14979 ft | 269 kts | 325° |
| 2026-04-26 19:13 | 56.61983 | 11.35470 | 14735 ft | 265 kts | 325° |
| 2026-04-26 19:14 | 56.63496 | 11.33591 | 14493 ft | 261 kts | 319° |
| 2026-04-26 19:14 | 56.64738 | 11.31230 | 14253 ft | 258 kts | 310° |
| 2026-04-26 19:14 | 56.66010 | 11.28923 | 14015 ft | 272 kts | 319° |
| 2026-04-26 19:14 | 56.67005 | 11.27406 | 13831 ft | 279 kts | 320° |
| 2026-04-26 19:15 | 56.68998 | 11.24424 | 13470 ft | 281 kts | 320° |
| 2026-04-26 19:15 | 56.70505 | 11.22167 | 13204 ft | 280 kts | 320° |
| 2026-04-26 19:15 | 56.72008 | 11.19911 | 12939 ft | 279 kts | 320° |
| 2026-04-26 19:15 | 56.73503 | 11.17662 | 12676 ft | 279 kts | 320° |
| 2026-04-26 19:16 | 56.74993 | 11.15414 | 12421 ft | 278 kts | 320° |
| 2026-04-26 19:16 | 56.76480 | 11.13167 | 12163 ft | 277 kts | 320° |
| 2026-04-26 19:16 | 56.77962 | 11.10924 | 11907 ft | 276 kts | 320° |
| 2026-04-26 19:16 | 56.79439 | 11.08681 | 11653 ft | 276 kts | 320° |
| 2026-04-26 19:17 | 56.80910 | 11.06444 | 11400 ft | 275 kts | 320° |
| 2026-04-26 19:17 | 56.82375 | 11.04208 | 11150 ft | 274 kts | 320° |
| 2026-04-26 19:17 | 56.83836 | 11.01974 | 10902 ft | 273 kts | 320° |
| 2026-04-26 19:17 | 56.85287 | 10.99743 | 10655 ft | 271 kts | 320° |
| 2026-04-26 19:18 | 56.86712 | 10.97547 | 10418 ft | 266 kts | 320° |
| 2026-04-26 19:18 | 56.88110 | 10.95386 | 10170 ft | 261 kts | 320° |
| 2026-04-26 19:18 | 56.89483 | 10.93259 | 9900 ft | 257 kts | 320° |
| 2026-04-26 19:18 | 56.90842 | 10.91153 | 9636 ft | 256 kts | 320° |
| 2026-04-26 19:19 | 56.92209 | 10.89026 | 9374 ft | 258 kts | 320° |
| 2026-04-26 19:19 | 56.93576 | 10.86895 | 9100 ft | 258 kts | 320° |
| 2026-04-26 19:19 | 56.94940 | 10.84766 | 8759 ft | 257 kts | 320° |
| 2026-04-26 19:19 | 56.96283 | 10.82667 | 8413 ft | 257 kts | 320° |
| 2026-04-26 19:20 | 56.97644 | 10.80542 | 8069 ft | 257 kts | 320° |
| 2026-04-26 19:20 | 56.98564 | 10.79104 | 7832 ft | 257 kts | 320° |
| 2026-04-26 19:20 | 57.00361 | 10.76292 | 7391 ft | 257 kts | 320° |
| 2026-04-26 19:20 | 57.01718 | 10.74168 | 7056 ft | 257 kts | 320° |
| 2026-04-26 19:21 | 57.03076 | 10.72039 | 6718 ft | 257 kts | 320° |
| 2026-04-26 19:21 | 57.04434 | 10.69913 | 6371 ft | 256 kts | 320° |
| 2026-04-26 19:21 | 57.05791 | 10.67795 | 6045 ft | 255 kts | 320° |
| 2026-04-26 19:21 | 57.07144 | 10.65699 | 5742 ft | 253 kts | 320° |
| 2026-04-26 19:22 | 57.08491 | 10.63632 | 5379 ft | 250 kts | 320° |
| 2026-04-26 19:22 | 57.09827 | 10.61591 | 4752 ft | 249 kts | 320° |
| 2026-04-26 19:22 | 57.11159 | 10.59573 | 4307 ft | 242 kts | 320° |
| 2026-04-26 19:22 | 57.12409 | 10.57696 | 4164 ft | 222 kts | 320° |
| 2026-04-26 19:23 | 57.13569 | 10.55965 | 3733 ft | 215 kts | 320° |
| 2026-04-26 19:23 | 57.14763 | 10.54181 | 3330 ft | 226 kts | 317° |
| 2026-04-26 19:23 | 57.15661 | 10.51716 | 3277 ft | 243 kts | 286° |
| 2026-04-26 19:23 | 57.15738 | 10.48590 | 3282 ft | 249 kts | 256° |
| 2026-04-26 19:24 | 57.15119 | 10.45606 | 3275 ft | 250 kts | 246° |
| 2026-04-26 19:24 | 57.14381 | 10.42742 | 2917 ft | 243 kts | 245° |
| 2026-04-26 19:24 | 57.13019 | 10.37627 | 2728 ft | 200 kts | 245° |
| 2026-04-26 19:25 | 57.12416 | 10.35385 | 2998 ft | 193 kts | 245° |
| 2026-04-26 19:25 | 57.12024 | 10.33926 | 3183 ft | 192 kts | 244° |
| 2026-04-26 19:25 | 57.11445 | 10.30881 | 3274 ft | 189 kts | 271° |
| 2026-04-26 19:25 | 57.11612 | 10.28522 | 3286 ft | 188 kts | 279° |
| 2026-04-26 19:26 | 57.11684 | 10.26121 | 3284 ft | 188 kts | 269° |
| 2026-04-26 19:26 | 57.11679 | 10.23712 | 3282 ft | 188 kts | 271° |
| 2026-04-26 19:26 | 57.11668 | 10.21311 | 3283 ft | 188 kts | 266° |
| 2026-04-26 19:26 | 57.11564 | 10.18912 | 3283 ft | 188 kts | 265° |
| 2026-04-26 19:27 | 57.11435 | 10.16522 | 3249 ft | 186 kts | 265° |
| 2026-04-26 19:27 | 57.11309 | 10.14236 | 3060 ft | 170 kts | 264° |
| 2026-04-26 19:27 | 57.11195 | 10.12239 | 2851 ft | 149 kts | 264° |
| 2026-04-26 19:27 | 57.11088 | 10.10364 | 2444 ft | 147 kts | 264° |
| 2026-04-26 19:28 | 57.10982 | 10.08512 | 2384 ft | 147 kts | 264° |
| 2026-04-26 19:28 | 57.10885 | 10.06654 | 2376 ft | 146 kts | 264° |
| 2026-04-26 19:28 | 57.10788 | 10.04812 | 2247 ft | 144 kts | 264° |
| 2026-04-26 19:28 | 57.10684 | 10.02860 | 1631 ft | 169 kts | 264° |
| 2026-04-26 19:29 | 57.10517 | 10.00403 | 1644 ft | 200 kts | 261° |
| 2026-04-26 19:29 | 57.10284 | 9.97905 | 1349 ft | 199 kts | 262° |
| 2026-04-26 19:29 | 57.10126 | 9.95371 | 988 ft | 199 kts | 266° |
| 2026-04-26 19:29 | 57.09976 | 9.92855 | 680 ft | 196 kts | 263° |
| 2026-04-26 19:30 | 57.09812 | 9.90456 | 395 ft | 186 kts | 264° |
| 2026-04-26 19:30 | 57.09676 | 9.88157 | 108 ft | 175 kts | 264° |
| 2026-04-26 19:30 | 57.09555 | 9.86137 | 20 ft | 129 kts | 263° |
| 2026-04-26 19:30 | 57.09500 | 9.85292 | 19 ft | 70 kts | 263° |
| 2026-04-26 19:31 | 57.09476 | 9.84925 | 19 ft | 4 kts | 263° |
| 2026-04-26 19:31 | 57.09471 | 9.84846 | 20 ft | 8 kts | 263° |
| 2026-04-26 19:31 | 57.09462 | 9.84710 | 19 ft | 13 kts | 263° |
| 2026-04-26 19:31 | 57.09450 | 9.84521 | 19 ft | 17 kts | 263° |
| 2026-04-26 19:32 | 57.09430 | 9.84302 | 19 ft | 12 kts | 236° |
| 2026-04-26 19:32 | 57.09351 | 9.84363 | 19 ft | 16 kts | 141° |
| 2026-04-26 19:32 | 57.09265 | 9.84520 | 21 ft | 19 kts | 112° |
| 2026-04-26 19:32 | 57.09275 | 9.84783 | 19 ft | 23 kts | 82° |
| 2026-04-26 19:33 | 57.09294 | 9.85096 | 19 ft | 27 kts | 83° |
| 2026-04-26 19:33 | 57.09317 | 9.85456 | 19 ft | 30 kts | 83° |
| 2026-04-26 19:33 | 57.09340 | 9.85795 | 19 ft | 14 kts | 83° |
| 2026-04-26 19:33 | 57.09295 | 9.85957 | 19 ft | 17 kts | 143° |
| 2026-04-26 19:34 | 57.09187 | 9.86106 | 19 ft | 21 kts | 143° |
| 2026-04-26 19:34 | 57.09058 | 9.86284 | 19 ft | 25 kts | 143° |
| 2026-04-26 19:34 | 57.08939 | 9.86455 | 19 ft | 19 kts | 141° |
| 2026-04-26 19:34 | 57.08822 | 9.86627 | 19 ft | 23 kts | 142° |
| 2026-04-26 19:35 | 57.08691 | 9.86824 | 19 ft | 18 kts | 137° |
| 2026-04-26 19:35 | 57.08685 | 9.86912 | 21 ft | 9 kts | 62° |
| 2026-04-26 19:35 | 57.08709 | 9.86976 | 19 ft | 0 kts | 55° |